sensor_id;sensor_type;location;lat;lon;timestamp;pressure;altitude;pressure_sealevel;temperature;humidity
21902;BME280;11115;46.038;14.612;2022-12-08T00:01:32;98195.44;;;4.60;100.00
21902;BME280;11115;46.038;14.612;2022-12-08T00:04:03;98179.03;;;4.55;100.00
21902;BME280;11115;46.038;14.612;2022-12-08T00:06:34;98193.53;;;4.55;100.00
21902;BME280;11115;46.038;14.612;2022-12-08T00:12:06;98193.56;;;4.50;100.00
21902;BME280;11115;46.038;14.612;2022-12-08T00:14:40;98203.41;;;4.56;100.00
21902;BME280;11115;46.038;14.612;2022-12-08T00:17:10;98194.34;;;4.71;100.00
21902;BME280;11115;46.038;14.612;2022-12-08T00:19:39;98194.88;;;4.73;100.00
21902;BME280;11115;46.038;14.612;2022-12-08T00:22:08;98189.13;;;4.70;100.00
21902;BME280;11115;46.038;14.612;2022-12-08T00:24:38;98186.69;;;4.68;100.00
21902;BME280;11115;46.038;14.612;2022-12-08T00:27:08;98181.97;;;4.79;100.00
21902;BME280;11115;46.038;14.612;2022-12-08T00:29:36;98184.75;;;4.69;100.00
21902;BME280;11115;46.038;14.612;2022-12-08T00:32:04;98189.13;;;4.70;100.00
21902;BME280;11115;46.038;14.612;2022-12-08T00:34:32;98161.47;;;4.61;100.00
21902;BME280;11115;46.038;14.612;2022-12-08T00:37:00;98183.41;;;4.56;100.00
21902;BME280;11115;46.038;14.612;2022-12-08T00:39:29;98186.13;;;4.66;100.00
21902;BME280;11115;46.038;14.612;2022-12-08T00:41:56;98184.19;;;4.72;100.00
21902;BME280;11115;46.038;14.612;2022-12-08T00:44:41;98180.94;;;4.54;100.00
21902;BME280;11115;46.038;14.612;2022-12-08T00:47:09;98179.56;;;4.57;100.00
21902;BME280;11115;46.038;14.612;2022-12-08T00:49:37;98180.13;;;4.64;100.00
21902;BME280;11115;46.038;14.612;2022-12-08T00:52:05;98172.41;;;4.71;100.00
21902;BME280;11115;46.038;14.612;2022-12-08T00:54:33;98175.47;;;4.65;100.00
21902;BME280;11115;46.038;14.612;2022-12-08T00:57:01;98167.72;;;4.77;100.00
21902;BME280;11115;46.038;14.612;2022-12-08T00:59:29;98168.59;;;4.57;100.00
21902;BME280;11115;46.038;14.612;2022-12-08T01:01:56;98170.50;;;4.67;100.00
21902;BME280;11115;46.038;14.612;2022-12-08T01:04:24;98177.38;;;4.59;100.00
21902;BME280;11115;46.038;14.612;2022-12-08T01:06:52;98181.19;;;4.58;100.00
21902;BME280;11115;46.038;14.612;2022-12-08T01:09:20;98178.78;;;4.36;100.00
21902;BME280;11115;46.038;14.612;2022-12-08T01:11:48;98154.69;;;4.38;100.00
21902;BME280;11115;46.038;14.612;2022-12-08T01:14:16;98154.41;;;4.40;100.00
21902;BME280;11115;46.038;14.612;2022-12-08T01:16:43;98169.72;;;4.51;100.00
21902;BME280;11115;46.038;14.612;2022-12-08T01:19:13;98175.22;;;4.51;100.00
21902;BME280;11115;46.038;14.612;2022-12-08T01:21:42;98170.25;;;4.58;100.00
21902;BME280;11115;46.038;14.612;2022-12-08T01:24:16;98170.50;;;4.62;100.00
21902;BME280;11115;46.038;14.612;2022-12-08T01:26:44;98085.16;;;4.19;100.00
21902;BME280;11115;46.038;14.612;2022-12-08T01:29:13;98163.38;;;4.71;100.00
21902;BME280;11115;46.038;14.612;2022-12-08T01:31:41;98155.16;;;4.61;100.00
21902;BME280;11115;46.038;14.612;2022-12-08T01:34:10;98154.94;;;4.52;100.00
21902;BME280;11115;46.038;14.612;2022-12-08T01:36:38;98159.31;;;4.48;100.00
21902;BME280;11115;46.038;14.612;2022-12-08T01:39:09;98162.06;;;4.48;100.00
21902;BME280;11115;46.038;14.612;2022-12-08T01:41:40;98152.22;;;4.47;100.00
21902;BME280;11115;46.038;14.612;2022-12-08T01:46:39;98150.31;;;4.37;100.00
21902;BME280;11115;46.038;14.612;2022-12-08T01:49:28;98151.13;;;4.48;100.00
21902;BME280;11115;46.038;14.612;2022-12-08T01:52:21;98155.78;;;4.47;100.00
21902;BME280;11115;46.038;14.612;2022-12-08T01:54:57;98143.97;;;4.52;100.00
21902;BME280;11115;46.038;14.612;2022-12-08T01:57:33;98122.63;;;4.49;100.00
21902;BME280;11115;46.038;14.612;2022-12-08T02:00:10;98137.13;;;4.54;100.00
21902;BME280;11115;46.038;14.612;2022-12-08T02:05:13;98128.09;;;4.49;100.00
21902;BME280;11115;46.038;14.612;2022-12-08T02:07:42;98128.34;;;4.52;100.00
21902;BME280;11115;46.038;14.612;2022-12-08T02:10:13;98135.22;;;4.40;100.00
21902;BME280;11115;46.038;14.612;2022-12-08T02:12:43;98129.50;;;4.36;100.00
21902;BME280;11115;46.038;14.612;2022-12-08T02:15:11;98121.53;;;4.40;100.00
21902;BME280;11115;46.038;14.612;2022-12-08T02:17:56;98123.72;;;4.48;100.00
21902;BME280;11115;46.038;14.612;2022-12-08T02:20:40;98129.75;;;4.45;100.00
21902;BME280;11115;46.038;14.612;2022-12-08T02:23:23;98133.34;;;4.30;100.00
21902;BME280;11115;46.038;14.612;2022-12-08T02:36:49;98102.09;;;4.36;100.00
21902;BME280;11115;46.038;14.612;2022-12-08T02:39:27;98099.94;;;4.28;100.00
21902;BME280;11115;46.038;14.612;2022-12-08T02:44:55;98084.34;;;4.29;100.00
21902;BME280;11115;46.038;14.612;2022-12-08T02:47:25;98073.94;;;4.25;100.00
21902;BME280;11115;46.038;14.612;2022-12-08T02:49:55;98076.94;;;4.29;100.00
21902;BME280;11115;46.038;14.612;2022-12-08T02:54:56;98072.03;;;4.26;100.00
21902;BME280;11115;46.038;14.612;2022-12-08T02:57:32;98081.03;;;4.32;100.00
21902;BME280;11115;46.038;14.612;2022-12-08T03:00:15;98079.44;;;4.15;100.00
21902;BME280;11115;46.038;14.612;2022-12-08T03:02:54;98074.75;;;4.21;100.00
21902;BME280;11115;46.038;14.612;2022-12-08T03:05:30;98075.84;;;4.25;100.00
21902;BME280;11115;46.038;14.612;2022-12-08T03:08:15;98087.91;;;4.14;100.00
21902;BME280;11115;46.038;14.612;2022-12-08T03:10:55;98084.34;;;4.29;100.00
21902;BME280;11115;46.038;14.612;2022-12-08T03:13:31;98082.41;;;4.29;100.00
21902;BME280;11115;46.038;14.612;2022-12-08T03:16:05;98068.47;;;4.25;100.00
21902;BME280;11115;46.038;14.612;2022-12-08T03:18:37;98073.38;;;4.29;100.00
21902;BME280;11115;46.038;14.612;2022-12-08T03:21:09;98074.16;;;4.39;100.00
21902;BME280;11115;46.038;14.612;2022-12-08T03:23:38;98066.00;;;4.29;100.00
21902;BME280;11115;46.038;14.612;2022-12-08T03:26:16;98060.50;;;4.24;100.00
21902;BME280;11115;46.038;14.612;2022-12-08T03:28:45;98043.25;;;4.23;100.00
21902;BME280;11115;46.038;14.612;2022-12-08T03:31:14;98050.13;;;4.26;100.00
21902;BME280;11115;46.038;14.612;2022-12-08T03:33:48;98055.88;;;4.24;100.00
21902;BME280;11115;46.038;14.612;2022-12-08T03:36:18;98063.81;;;4.21;100.00
21902;BME280;11115;46.038;14.612;2022-12-08T03:38:50;98066.56;;;4.16;100.00
21902;BME280;11115;46.038;14.612;2022-12-08T03:41:20;98055.91;;;4.09;100.00
21902;BME280;11115;46.038;14.612;2022-12-08T03:46:18;98049.00;;;4.22;100.00
21902;BME280;11115;46.038;14.612;2022-12-08T03:48:45;98050.16;;;4.11;100.00
21902;BME280;11115;46.038;14.612;2022-12-08T03:51:13;98046.28;;;4.22;100.00
21902;BME280;11115;46.038;14.612;2022-12-08T03:53:42;98047.09;;;4.22;100.00
21902;BME280;11115;46.038;14.612;2022-12-08T03:59:16;98058.09;;;4.12;100.00
21902;BME280;11115;46.038;14.612;2022-12-08T04:01:44;98044.97;;;4.09;100.00
21902;BME280;11115;46.038;14.612;2022-12-08T04:04:11;98044.34;;;4.22;100.00
21902;BME280;11115;46.038;14.612;2022-12-08T04:06:39;98035.03;;;4.23;100.00
21902;BME280;11115;46.038;14.612;2022-12-08T04:09:07;98034.00;;;4.09;100.00
21902;BME280;11115;46.038;14.612;2022-12-08T04:11:35;98037.78;;;4.23;100.00
21902;BME280;11115;46.038;14.612;2022-12-08T04:14:02;98030.69;;;4.17;100.00
21902;BME280;11115;46.038;14.612;2022-12-08T04:16:30;98032.91;;;4.10;100.00
21902;BME280;11115;46.038;14.612;2022-12-08T04:18:58;98035.09;;;4.08;100.00
21902;BME280;11115;46.038;14.612;2022-12-08T04:21:28;98033.47;;;4.07;100.00
21902;BME280;11115;46.038;14.612;2022-12-08T04:23:56;98036.75;;;4.09;100.00
21902;BME280;11115;46.038;14.612;2022-12-08T04:26:27;98040.03;;;4.11;100.00
21902;BME280;11115;46.038;14.612;2022-12-08T04:28:54;98035.38;;;4.12;100.00
21902;BME280;11115;46.038;14.612;2022-12-08T04:31:22;98009.63;;;4.13;100.00
21902;BME280;11115;46.038;14.612;2022-12-08T04:33:50;98032.88;;;4.25;100.00
21902;BME280;11115;46.038;14.612;2022-12-08T04:36:18;98015.91;;;4.18;100.00
21902;BME280;11115;46.038;14.612;2022-12-08T04:38:45;98005.50;;;4.15;100.00
21902;BME280;11115;46.038;14.612;2022-12-08T04:41:13;98021.38;;;4.18;100.00
21902;BME280;11115;46.038;14.612;2022-12-08T04:43:41;98016.16;;;4.27;100.00
21902;BME280;11115;46.038;14.612;2022-12-08T04:46:09;98003.06;;;4.09;100.00
21902;BME280;11115;46.038;14.612;2022-12-08T04:48:38;98012.91;;;4.15;100.00
21902;BME280;11115;46.038;14.612;2022-12-08T04:51:13;98024.41;;;4.12;100.00
21902;BME280;11115;46.038;14.612;2022-12-08T04:53:43;98019.50;;;3.99;100.00
21902;BME280;11115;46.038;14.612;2022-12-08T04:56:16;98003.41;;;3.87;100.00
21902;BME280;11115;46.038;14.612;2022-12-08T04:58:45;98022.28;;;3.83;100.00
21902;BME280;11115;46.038;14.612;2022-12-08T05:01:13;98023.88;;;4.05;100.00
21902;BME280;11115;46.038;14.612;2022-12-08T05:03:41;97973.31;;;3.87;100.00
21902;BME280;11115;46.038;14.612;2022-12-08T05:06:11;98018.06;;;4.21;100.00
21902;BME280;11115;46.038;14.612;2022-12-08T05:08:39;98013.13;;;4.23;100.00
21902;BME280;11115;46.038;14.612;2022-12-08T05:11:09;98009.59;;;4.23;100.00
21902;BME280;11115;46.038;14.612;2022-12-08T05:13:37;98010.44;;;4.18;100.00
21902;BME280;11115;46.038;14.612;2022-12-08T05:16:08;98005.75;;;4.24;100.00
21902;BME280;11115;46.038;14.612;2022-12-08T05:18:37;97998.66;;;4.18;100.00
21902;BME280;11115;46.038;14.612;2022-12-08T05:21:05;98003.59;;;4.16;100.00
21902;BME280;11115;46.038;14.612;2022-12-08T05:23:33;97990.16;;;4.19;100.00
21902;BME280;11115;46.038;14.612;2022-12-08T05:26:01;97983.03;;;4.23;100.00
21902;BME280;11115;46.038;14.612;2022-12-08T05:28:29;97984.69;;;4.19;100.00
21902;BME280;11115;46.038;14.612;2022-12-08T05:31:07;97991.03;;;4.10;100.00
21902;BME280;11115;46.038;14.612;2022-12-08T05:33:35;97988.28;;;4.10;100.00
21902;BME280;11115;46.038;14.612;2022-12-08T05:36:03;97999.81;;;4.07;100.00
21902;BME280;11115;46.038;14.612;2022-12-08T05:38:31;98003.34;;;4.02;100.00
21902;BME280;11115;46.038;14.612;2022-12-08T05:40:59;97998.16;;;4.06;100.00
21902;BME280;11115;46.038;14.612;2022-12-08T05:43:26;97994.88;;;4.04;100.00
21902;BME280;11115;46.038;14.612;2022-12-08T05:45:54;97993.22;;;4.13;100.00
21902;BME280;11115;46.038;14.612;2022-12-08T05:48:22;97993.50;;;4.01;100.00
21902;BME280;11115;46.038;14.612;2022-12-08T05:50:50;97996.25;;;3.96;100.00
21902;BME280;11115;46.038;14.612;2022-12-08T05:53:19;97985.34;;;3.91;100.00
21902;BME280;11115;46.038;14.612;2022-12-08T05:55:47;97987.22;;;4.06;100.00
21902;BME280;11115;46.038;14.612;2022-12-08T05:58:17;97992.94;;;4.09;100.00
21902;BME280;11115;46.038;14.612;2022-12-08T06:00:46;97989.44;;;3.93;100.00
21902;BME280;11115;46.038;14.612;2022-12-08T06:03:15;97995.47;;;3.85;100.00
21902;BME280;11115;46.038;14.612;2022-12-08T06:05:44;97985.91;;;3.88;100.00
21902;BME280;11115;46.038;14.612;2022-12-08T06:08:13;97985.88;;;3.93;100.00
21902;BME280;11115;46.038;14.612;2022-12-08T06:10:42;97991.59;;;4.07;100.00
21902;BME280;11115;46.038;14.612;2022-12-08T06:13:10;97993.75;;;4.15;100.00
21902;BME280;11115;46.038;14.612;2022-12-08T06:15:39;97963.69;;;4.00;100.00
21902;BME280;11115;46.038;14.612;2022-12-08T06:18:07;97988.56;;;4.03;100.00
21902;BME280;11115;46.038;14.612;2022-12-08T06:20:36;97980.09;;;4.10;100.00
21902;BME280;11115;46.038;14.612;2022-12-08T06:23:04;97981.41;;;4.17;100.00
21902;BME280;11115;46.038;14.612;2022-12-08T06:25:32;97976.72;;;4.23;100.00
21902;BME280;11115;46.038;14.612;2022-12-08T06:27:59;97983.63;;;4.15;100.00
21902;BME280;11115;46.038;14.612;2022-12-08T06:30:27;97972.06;;;4.23;100.00
21902;BME280;11115;46.038;14.612;2022-12-08T06:32:55;97975.38;;;4.25;100.00
21902;BME280;11115;46.038;14.612;2022-12-08T06:35:23;97970.44;;;4.22;100.00
21902;BME280;11115;46.038;14.612;2022-12-08T06:37:50;97978.72;;;4.07;100.00
21902;BME280;11115;46.038;14.612;2022-12-08T06:40:18;97979.81;;;4.06;100.00
21902;BME280;11115;46.038;14.612;2022-12-08T06:42:46;97979.00;;;4.01;100.00
21902;BME280;11115;46.038;14.612;2022-12-08T06:45:16;97985.28;;;4.11;100.00
21902;BME280;11115;46.038;14.612;2022-12-08T06:47:44;97994.06;;;4.08;100.00
21902;BME280;11115;46.038;14.612;2022-12-08T06:50:12;97991.88;;;4.00;100.00
21902;BME280;11115;46.038;14.612;2022-12-08T06:52:40;97991.88;;;3.95;100.00
21902;BME280;11115;46.038;14.612;2022-12-08T06:55:26;98000.63;;;4.02;100.00
21902;BME280;11115;46.038;14.612;2022-12-08T06:58:14;98002.81;;;4.10;100.00
21902;BME280;11115;46.038;14.612;2022-12-08T07:00:42;97995.72;;;3.99;100.00
21902;BME280;11115;46.038;14.612;2022-12-08T07:03:11;98003.06;;;4.09;100.00
21902;BME280;11115;46.038;14.612;2022-12-08T07:05:39;98003.84;;;4.24;100.00
21902;BME280;11115;46.038;14.612;2022-12-08T07:08:07;98007.66;;;4.23;100.00
21902;BME280;11115;46.038;14.612;2022-12-08T07:10:36;98008.50;;;4.19;100.00
21902;BME280;11115;46.038;14.612;2022-12-08T07:13:03;98007.47;;;4.00;100.00
21902;BME280;11115;46.038;14.612;2022-12-08T07:15:31;98011.31;;;3.99;100.00
21902;BME280;11115;46.038;14.612;2022-12-08T07:17:59;98005.53;;;4.10;100.00
21902;BME280;11115;46.038;14.612;2022-12-08T07:20:27;98001.66;;;4.21;100.00
21902;BME280;11115;46.038;14.612;2022-12-08T07:22:54;97994.81;;;4.19;100.00
21902;BME280;11115;46.038;14.612;2022-12-08T07:25:22;98000.84;;;4.21;100.00
21902;BME280;11115;46.038;14.612;2022-12-08T07:27:50;98000.56;;;4.17;100.00
21902;BME280;11115;46.038;14.612;2022-12-08T07:30:18;98004.44;;;4.11;100.00
21902;BME280;11115;46.038;14.612;2022-12-08T07:32:46;98012.34;;;4.18;100.00
21902;BME280;11115;46.038;14.612;2022-12-08T07:35:14;98011.25;;;4.19;100.00
21902;BME280;11115;46.038;14.612;2022-12-08T07:37:42;98015.66;;;4.10;100.00
21902;BME280;11115;46.038;14.612;2022-12-08T07:40:10;98001.44;;;4.03;100.00
21902;BME280;11115;46.038;14.612;2022-12-08T07:42:38;98010.75;;;4.07;100.00
21902;BME280;11115;46.038;14.612;2022-12-08T07:45:06;98014.81;;;4.14;100.00
21902;BME280;11115;46.038;14.612;2022-12-08T07:47:34;98015.94;;;4.13;100.00
21902;BME280;11115;46.038;14.612;2022-12-08T07:50:01;98010.97;;;4.25;100.00
21902;BME280;11115;46.038;14.612;2022-12-08T07:52:30;98011.25;;;4.19;100.00
21902;BME280;11115;46.038;14.612;2022-12-08T07:54:57;98011.81;;;4.16;100.00
21902;BME280;11115;46.038;14.612;2022-12-08T07:57:25;98003.06;;;4.14;100.00
21902;BME280;11115;46.038;14.612;2022-12-08T07:59:53;98003.84;;;4.19;100.00
21902;BME280;11115;46.038;14.612;2022-12-08T08:02:20;98002.47;;;4.22;100.00
21902;BME280;11115;46.038;14.612;2022-12-08T08:04:51;97987.47;;;4.04;100.00
21902;BME280;11115;46.038;14.612;2022-12-08T08:07:19;98012.59;;;4.21;100.00
21902;BME280;11115;46.038;14.612;2022-12-08T08:09:47;98009.84;;;4.21;100.00
21902;BME280;11115;46.038;14.612;2022-12-08T08:12:15;98010.97;;;4.20;100.00
21902;BME280;11115;46.038;14.612;2022-12-08T08:15:00;98011.22;;;4.24;100.00
21902;BME280;11115;46.038;14.612;2022-12-08T08:17:28;98012.84;;;4.30;100.00
21902;BME280;11115;46.038;14.612;2022-12-08T08:19:56;98011.22;;;4.24;100.00
21902;BME280;11115;46.038;14.612;2022-12-08T08:22:25;98011.78;;;4.21;100.00
21902;BME280;11115;46.038;14.612;2022-12-08T08:24:53;97994.03;;;4.03;100.00
21902;BME280;11115;46.038;14.612;2022-12-08T08:27:20;98010.97;;;4.25;100.00
21902;BME280;11115;46.038;14.612;2022-12-08T08:29:50;98016.44;;;4.25;100.00
21902;BME280;11115;46.038;14.612;2022-12-08T08:32:18;98012.59;;;4.21;100.00
21902;BME280;11115;46.038;14.612;2022-12-08T08:34:45;98008.75;;;4.22;100.00
21902;BME280;11115;46.038;14.612;2022-12-08T08:37:13;98011.56;;;4.12;100.00
21902;BME280;11115;46.038;14.612;2022-12-08T08:39:41;98016.16;;;4.22;100.00
21902;BME280;11115;46.038;14.612;2022-12-08T08:42:09;98019.72;;;4.22;100.00
21902;BME280;11115;46.038;14.612;2022-12-08T08:44:37;98017.25;;;4.21;100.00
21902;BME280;11115;46.038;14.612;2022-12-08T08:47:05;98015.88;;;4.29;100.00
21902;BME280;11115;46.038;14.612;2022-12-08T08:49:33;98013.16;;;4.18;100.00
21902;BME280;11115;46.038;14.612;2022-12-08T08:52:01;98012.38;;;4.13;100.00
21902;BME280;11115;46.038;14.612;2022-12-08T08:54:29;98022.22;;;4.14;100.00
21902;BME280;11115;46.038;14.612;2022-12-08T08:56:58;98023.84;;;4.15;100.00
21902;BME280;11115;46.038;14.612;2022-12-08T08:59:27;98022.16;;;4.24;100.00
21902;BME280;11115;46.038;14.612;2022-12-08T09:01:55;98027.94;;;4.28;100.00
21902;BME280;11115;46.038;14.612;2022-12-08T09:04:22;98002.75;;;4.20;100.00
21902;BME280;11115;46.038;14.612;2022-12-08T09:06:51;98023.53;;;4.32;100.00
21902;BME280;11115;46.038;14.612;2022-12-08T09:09:19;98017.53;;;4.24;100.00
21902;BME280;11115;46.038;14.612;2022-12-08T09:11:46;98017.81;;;4.28;100.00
21902;BME280;11115;46.038;14.612;2022-12-08T09:14:14;98004.94;;;4.18;100.00
21902;BME280;11115;46.038;14.612;2022-12-08T09:16:42;98018.63;;;4.23;100.00
21902;BME280;11115;46.038;14.612;2022-12-08T09:19:10;98007.94;;;4.27;100.00
21902;BME280;11115;46.038;14.612;2022-12-08T09:21:38;98020.28;;;4.19;100.00
21902;BME280;11115;46.038;14.612;2022-12-08T09:24:06;97996.25;;;4.01;100.00
21902;BME280;11115;46.038;14.612;2022-12-08T09:26:42;98008.84;;;3.97;100.00
21902;BME280;11115;46.038;14.612;2022-12-08T09:29:10;97993.00;;;3.94;100.00
21902;BME280;11115;46.038;14.612;2022-12-08T09:31:39;98009.63;;;4.13;100.00
21902;BME280;11115;46.038;14.612;2022-12-08T09:34:09;97996.78;;;4.08;100.00
21902;BME280;11115;46.038;14.612;2022-12-08T09:36:38;97983.91;;;4.04;100.00
21902;BME280;11115;46.038;14.612;2022-12-08T09:39:05;98002.53;;;4.12;100.00
21902;BME280;11115;46.038;14.612;2022-12-08T09:41:35;97998.16;;;4.01;100.00
21902;BME280;11115;46.038;14.612;2022-12-08T09:47:34;97985.31;;;4.06;100.00
21902;BME280;11115;46.038;14.612;2022-12-08T09:50:20;97976.00;;;4.07;100.00
21902;BME280;11115;46.038;14.612;2022-12-08T09:53:17;97968.78;;;4.21;100.00
21902;BME280;11115;46.038;14.612;2022-12-08T09:55:54;97972.06;;;4.29;100.00
21902;BME280;11115;46.038;14.612;2022-12-08T10:01:13;97970.72;;;4.21;100.00
21902;BME280;11115;46.038;14.612;2022-12-08T10:03:41;97964.41;;;4.20;100.00
21902;BME280;11115;46.038;14.612;2022-12-08T10:14:58;97956.75;;;4.22;100.00
21902;BME280;11115;46.038;14.612;2022-12-08T10:17:35;97929.47;;;4.02;100.00
21902;BME280;11115;46.038;14.612;2022-12-08T10:26:03;97948.00;;;4.20;100.00
21902;BME280;11115;46.038;14.612;2022-12-08T10:28:32;97941.41;;;4.21;100.00
21902;BME280;11115;46.038;14.612;2022-12-08T10:31:19;97941.38;;;4.32;100.00
21902;BME280;11115;46.038;14.612;2022-12-08T10:33:56;97935.66;;;4.28;100.00
21902;BME280;11115;46.038;14.612;2022-12-08T10:37:04;97947.09;;;4.35;100.00
21902;BME280;11115;46.038;14.612;2022-12-08T10:39:37;97934.72;;;4.43;100.00
21902;BME280;11115;46.038;14.612;2022-12-08T10:42:25;97924.84;;;4.52;100.00
21902;BME280;11115;46.038;14.612;2022-12-08T10:47:26;97926.47;;;4.53;100.00
21902;BME280;11115;46.038;14.612;2022-12-08T10:52:46;97907.53;;;4.56;100.00
21902;BME280;11115;46.038;14.612;2022-12-08T10:55:20;97914.38;;;4.59;100.00
21902;BME280;11115;46.038;14.612;2022-12-08T10:57:48;97914.22;;;4.40;100.00
21902;BME280;11115;46.038;14.612;2022-12-08T11:00:19;97907.00;;;4.54;100.00
21902;BME280;11115;46.038;14.612;2022-12-08T11:02:53;97910.72;;;4.74;100.00
21902;BME280;11115;46.038;14.612;2022-12-08T11:05:26;97917.81;;;4.75;100.00
21902;BME280;11115;46.038;14.612;2022-12-08T11:07:55;97907.09;;;4.83;100.00
21902;BME280;11115;46.038;14.612;2022-12-08T11:10:35;97911.53;;;4.74;100.00
21902;BME280;11115;46.038;14.612;2022-12-08T11:13:05;97906.00;;;4.79;100.00
21902;BME280;11115;46.038;14.612;2022-12-08T11:15:37;97899.41;;;4.80;100.00
21902;BME280;11115;46.038;14.612;2022-12-08T11:18:17;97900.41;;;4.95;100.00
21902;BME280;11115;46.038;14.612;2022-12-08T11:20:59;97891.41;;;4.89;100.00
21902;BME280;11115;46.038;14.612;2022-12-08T11:23:28;97892.47;;;4.93;100.00
21902;BME280;11115;46.038;14.612;2022-12-08T11:26:01;97897.38;;;4.96;100.00
21902;BME280;11115;46.038;14.612;2022-12-08T11:28:31;97892.78;;;4.92;100.00
21902;BME280;11115;46.038;14.612;2022-12-08T11:31:04;97891.75;;;4.82;100.00
21902;BME280;11115;46.038;14.612;2022-12-08T11:33:34;97890.38;;;4.80;100.00
21902;BME280;11115;46.038;14.612;2022-12-08T11:36:04;97883.19;;;4.89;100.00
21902;BME280;11115;46.038;14.612;2022-12-08T11:38:34;97879.53;;;5.04;100.00
21902;BME280;11115;46.038;14.612;2022-12-08T11:41:09;97888.28;;;5.06;100.00
21902;BME280;11115;46.038;14.612;2022-12-08T11:43:52;97871.06;;;4.95;100.00
21902;BME280;11115;46.038;14.612;2022-12-08T11:46:52;97865.81;;;5.04;100.00
21902;BME280;11115;46.038;14.612;2022-12-08T11:49:27;97864.72;;;5.05;100.00
21902;BME280;11115;46.038;14.612;2022-12-08T11:52:02;97856.47;;;5.05;100.00
21902;BME280;11115;46.038;14.612;2022-12-08T11:54:50;97866.66;;;4.99;100.00
21902;BME280;11115;46.038;14.612;2022-12-08T11:57:20;97857.28;;;5.05;100.00
21902;BME280;11115;46.038;14.612;2022-12-08T11:59:53;97844.44;;;5.01;100.00
21902;BME280;11115;46.038;14.612;2022-12-08T12:02:28;97849.38;;;5.04;100.00
21902;BME280;11115;46.038;14.612;2022-12-08T12:05:28;97860.75;;;4.82;100.00
21902;BME280;11115;46.038;14.612;2022-12-08T12:08:22;97850.31;;;4.89;100.00
21902;BME280;11115;46.038;14.612;2022-12-08T12:16:52;97838.28;;;4.85;100.00
21902;BME280;11115;46.038;14.612;2022-12-08T12:19:23;97841.69;;;5.01;100.00
21902;BME280;11115;46.038;14.612;2022-12-08T12:21:54;97835.06;;;5.07;100.00
21902;BME280;11115;46.038;14.612;2022-12-08T12:24:33;97835.84;;;5.12;100.00
21902;BME280;11115;46.038;14.612;2022-12-08T12:27:17;97838.47;;;4.94;100.00
21902;BME280;11115;46.038;14.612;2022-12-08T12:29:51;97848.78;;;5.07;100.00
21902;BME280;11115;46.038;14.612;2022-12-08T12:32:22;97845.69;;;4.84;100.00
21902;BME280;11115;46.038;14.612;2022-12-08T12:34:59;97818.84;;;4.81;100.00
21902;BME280;11115;46.038;14.612;2022-12-08T12:37:40;97836.19;;;5.06;100.00
21902;BME280;11115;46.038;14.612;2022-12-08T12:40:17;97834.28;;;5.01;100.00
21902;BME280;11115;46.038;14.612;2022-12-08T12:45:27;97810.84;;;4.90;100.00
21902;BME280;11115;46.038;14.612;2022-12-08T12:53:04;97818.34;;;5.08;100.00
21902;BME280;11115;46.038;14.612;2022-12-08T12:55:59;97827.00;;;4.92;100.00
21902;BME280;11115;46.038;14.612;2022-12-08T13:03:44;97827.38;;;5.09;100.00
21902;BME280;11115;46.038;14.612;2022-12-08T13:06:20;97823.50;;;4.86;100.00
21902;BME280;11115;46.038;14.612;2022-12-08T13:08:50;97831.53;;;5.06;100.00
21902;BME280;11115;46.038;14.612;2022-12-08T13:11:20;97829.59;;;5.07;100.00
21902;BME280;11115;46.038;14.612;2022-12-08T13:14:00;97827.38;;;5.09;100.00
21902;BME280;11115;46.038;14.612;2022-12-08T13:16:37;97807.94;;;5.05;100.00
21902;BME280;11115;46.038;14.612;2022-12-08T13:19:13;97823.13;;;4.93;100.00
21902;BME280;11115;46.038;14.612;2022-12-08T13:21:42;97819.13;;;4.80;100.00
21902;BME280;11115;46.038;14.612;2022-12-08T13:26:45;97813.91;;;4.83;100.00
21902;BME280;11115;46.038;14.612;2022-12-08T13:29:23;97813.63;;;4.85;100.00
21902;BME280;11115;46.038;14.612;2022-12-08T13:31:57;97814.38;;;4.91;100.00
21902;BME280;11115;46.038;14.612;2022-12-08T13:39:43;97806.06;;;5.01;100.00
21902;BME280;11115;46.038;14.612;2022-12-08T13:45:13;97809.28;;;5.08;100.00
21902;BME280;11115;46.038;14.612;2022-12-08T13:51:18;97799.13;;;4.79;100.00
21902;BME280;11115;46.038;14.612;2022-12-08T13:54:12;97800.09;;;4.94;100.00
21902;BME280;11115;46.038;14.612;2022-12-08T13:57:06;97808.69;;;4.82;100.00
21902;BME280;11115;46.038;14.612;2022-12-08T13:59:43;97815.72;;;4.93;100.00
21902;BME280;11115;46.038;14.612;2022-12-08T14:02:15;97808.38;;;4.88;100.00
21902;BME280;11115;46.038;14.612;2022-12-08T14:04:44;97817.75;;;4.82;100.00
21902;BME280;11115;46.038;14.612;2022-12-08T14:07:33;97812.84;;;4.79;100.00
21902;BME280;11115;46.038;14.612;2022-12-08T14:10:02;97801.47;;;4.67;100.00
21902;BME280;11115;46.038;14.612;2022-12-08T14:12:30;97813.91;;;4.83;100.00
21902;BME280;11115;46.038;14.612;2022-12-08T14:15:00;97818.03;;;4.81;100.00
21902;BME280;11115;46.038;14.612;2022-12-08T14:17:40;97813.66;;;4.80;100.00
21902;BME280;11115;46.038;14.612;2022-12-08T14:20:26;97809.28;;;4.79;100.00
21902;BME280;11115;46.038;14.612;2022-12-08T14:22:54;97785.31;;;4.66;100.00
21902;BME280;11115;46.038;14.612;2022-12-08T14:25:24;97801.34;;;4.77;100.00
21902;BME280;11115;46.038;14.612;2022-12-08T14:27:58;97813.56;;;4.90;100.00
21902;BME280;11115;46.038;14.612;2022-12-08T14:30:30;97807.56;;;4.88;100.00
21902;BME280;11115;46.038;14.612;2022-12-08T14:33:00;97800.53;;;4.77;100.00
21902;BME280;11115;46.038;14.612;2022-12-08T14:35:34;97807.22;;;4.66;100.00
21902;BME280;11115;46.038;14.612;2022-12-08T14:38:11;97813.53;;;4.66;100.00
21902;BME280;11115;46.038;14.612;2022-12-08T14:40:41;97823.56;;;4.76;100.00
21902;BME280;11115;46.038;14.612;2022-12-08T14:50:58;97828.75;;;4.77;100.00